SAVT/REL METAR and TAF weather

Enter ICAO airport designator
Station Type Date Time Source
SAVT METAR 2020/11/25 21:22 UTC NOAA

SAVT 252122Z 23030G44KT 8000 DS BKN030 SCT034 BKN200 19/M06 Q1000


Station Type Date Time Source
SAVT Decoded METAR 2020/11/25 21:22 UTC NOAA

Trelew Aerodrome, Argentina (SAVT) 43-12S 065-16W 43M
Nov 25, 2020 - 04:22 PM EST / 2020.11.25 2122 UTC
Wind: from the SW (230 degrees) at 35 MPH (30 KT) gusting to 51 MPH (44 KT):0
Visibility: 4 mile(s):0
Sky conditions: mostly cloudy
Weather: duststorm
Temperature: 66 F (19 C)
Dew Point: 21 F (-6 C)
Relative Humidity: 17%
Pressure (altimeter): 29.53 in. Hg (1000 hPa)
ob: SAVT 252122Z 23030G44KT 8000 DS BKN030 SCT034 BKN200 19/M06 Q1000
cycle: 21

Station Type Date Time Source
SAVT TAF 2020/11/24 00:21 UTC NOAA

TAF SAVT 242300Z 2500/2524 02015G25KT CAVOK TX23/2515Z TN12/2511Z
BECMG 2505/2507 25010KT
BECMG 2514/2516 29020G30KT 9999 SCT030 BKN060 PROB40
TEMPO 2516/2519 -SHRA SCT030 FEW040TCU OVC050
BECMG 2520/2522 25025G35KT FEW030 SCT090

Example: see airport list